createdAt,value
2024-01-07T00:00:01.246Z,956.35
2024-01-07T00:01:01.340Z,956.36
2024-01-07T00:02:01.277Z,956.35
2024-01-07T00:03:01.252Z,956.33
2024-01-07T00:04:01.267Z,956.35
2024-01-07T00:05:01.266Z,956.33
2024-01-07T00:06:01.261Z,956.38
2024-01-07T00:07:01.290Z,956.36
2024-01-07T00:08:01.159Z,956.37
2024-01-07T00:09:01.176Z,956.35
2024-01-07T00:10:01.213Z,956.36
2024-01-07T00:11:01.346Z,956.46
2024-01-07T00:12:01.126Z,956.36
2024-01-07T00:13:01.228Z,956.33
2024-01-07T00:14:01.102Z,956.40
2024-01-07T00:15:01.094Z,956.33
2024-01-07T00:16:01.179Z,956.39
2024-01-07T00:17:01.082Z,956.39
2024-01-07T00:18:01.097Z,956.39
2024-01-07T00:19:01.316Z,956.44
2024-01-07T00:20:01.047Z,956.37
2024-01-07T00:21:01.064Z,956.36
2024-01-07T00:22:01.129Z,956.35
2024-01-07T00:23:00.994Z,956.35
2024-01-07T00:24:00.983Z,956.39
2024-01-07T00:25:01.042Z,956.32
2024-01-07T00:26:00.979Z,956.33
2024-01-07T00:27:00.985Z,956.35
2024-01-07T00:28:01.054Z,956.34
2024-01-07T00:29:00.944Z,956.33
2024-01-07T00:30:00.936Z,956.35
2024-01-07T00:31:00.976Z,956.33
2024-01-07T00:32:00.929Z,956.29
2024-01-07T00:33:00.945Z,956.33
2024-01-07T00:34:00.977Z,956.35
2024-01-07T00:35:00.976Z,956.32
2024-01-07T00:36:00.853Z,956.37
2024-01-07T00:37:00.912Z,956.33
2024-01-07T00:38:00.844Z,956.31
2024-01-07T00:39:00.821Z,956.28
2024-01-07T00:40:00.906Z,956.30
2024-01-07T00:41:00.811Z,956.34
2024-01-07T00:42:00.807Z,956.32
2024-01-07T00:43:00.865Z,956.34
2024-01-07T00:44:00.821Z,956.31
2024-01-07T00:45:00.760Z,956.37
2024-01-07T00:46:00.780Z,956.36
2024-01-07T00:47:00.729Z,956.32
2024-01-07T00:48:00.891Z,956.36
2024-01-07T00:49:01.609Z,956.34
2024-01-07T00:50:00.707Z,956.37
2024-01-07T00:51:00.699Z,956.32
2024-01-07T00:52:00.816Z,956.32
2024-01-07T00:53:00.665Z,956.35
2024-01-07T00:54:00.656Z,956.39
2024-01-07T00:55:00.685Z,956.29
2024-01-07T00:56:00.643Z,956.35
2024-01-07T00:57:00.649Z,956.36
2024-01-07T00:58:00.681Z,956.32
2024-01-07T00:59:00.606Z,956.37
2024-01-07T01:00:00.589Z,956.33
2024-01-07T01:01:00.650Z,956.36
2024-01-07T01:02:00.646Z,956.34
2024-01-07T01:03:00.552Z,956.37
2024-01-07T01:04:00.682Z,956.36
2024-01-07T01:05:00.648Z,956.33
2024-01-07T01:06:00.617Z,956.41
2024-01-07T01:07:00.584Z,956.41
2024-01-07T01:08:00.519Z,956.31
2024-01-07T01:09:00.512Z,956.35
2024-01-07T01:10:00.494Z,956.34
2024-01-07T01:11:00.475Z,956.38
2024-01-07T01:12:00.467Z,956.40
2024-01-07T01:13:00.529Z,956.44
2024-01-07T01:14:00.473Z,956.42
2024-01-07T01:15:00.425Z,956.38
2024-01-07T01:16:00.445Z,956.44
2024-01-07T01:17:00.422Z,956.44
2024-01-07T01:18:00.455Z,956.44
2024-01-07T01:19:00.489Z,956.44
2024-01-07T01:20:00.432Z,956.46
2024-01-07T01:21:00.377Z,956.39
2024-01-07T01:22:00.454Z,956.43
2024-01-07T01:23:00.354Z,956.44
2024-01-07T01:24:00.369Z,956.47
2024-01-07T01:25:00.366Z,956.43
2024-01-07T01:26:00.295Z,956.45
2024-01-07T01:27:00.290Z,956.45
2024-01-07T01:28:00.390Z,956.41
2024-01-07T01:29:00.308Z,956.44
2024-01-07T01:30:00.336Z,956.49
2024-01-07T01:31:00.377Z,956.43
2024-01-07T01:32:00.232Z,956.50
2024-01-07T01:33:00.318Z,956.44
2024-01-07T01:34:00.448Z,956.41
2024-01-07T01:35:00.260Z,956.50
2024-01-07T01:36:00.193Z,956.40
2024-01-07T01:37:00.395Z,956.51
2024-01-07T01:38:00.194Z,956.40
2024-01-07T01:39:00.196Z,956.48
2024-01-07T01:40:00.451Z,956.46
2024-01-07T01:41:00.181Z,956.44
2024-01-07T01:42:00.137Z,956.42
2024-01-07T01:43:00.206Z,956.42
2024-01-07T01:44:00.099Z,956.42
2024-01-07T01:45:00.088Z,956.41
2024-01-07T01:46:00.199Z,956.46
2024-01-07T01:47:00.071Z,956.35
2024-01-07T01:48:00.196Z,956.40
2024-01-07T01:49:00.126Z,956.39
2024-01-07T01:50:00.135Z,956.38
2024-01-07T01:51:00.054Z,956.38
2024-01-07T01:52:00.142Z,956.37
2024-01-07T01:53:00.029Z,956.42
2024-01-07T01:54:00.006Z,956.38
2024-01-07T01:54:59.988Z,956.32
2024-01-07T01:55:59.984Z,956.42
2024-01-07T01:56:59.953Z,956.39
2024-01-07T01:58:00.005Z,956.38
2024-01-07T01:58:59.950Z,956.31
2024-01-07T01:59:59.932Z,956.34
2024-01-07T02:01:00.012Z,956.33
2024-01-07T02:01:59.975Z,956.34
2024-01-07T02:02:59.970Z,956.38
2024-01-07T02:03:59.993Z,956.36
2024-01-07T02:04:59.949Z,956.30
2024-01-07T02:05:59.880Z,956.34
2024-01-07T02:06:59.907Z,956.36
2024-01-07T02:07:59.822Z,956.37
2024-01-07T02:08:59.851Z,956.37
2024-01-07T02:09:59.865Z,956.40
2024-01-07T02:10:59.822Z,956.34
2024-01-07T02:11:59.793Z,956.36
2024-01-07T02:12:59.785Z,956.36
2024-01-07T02:13:59.759Z,956.38
2024-01-07T02:14:59.775Z,956.35
2024-01-07T02:15:59.789Z,956.33
2024-01-07T02:16:59.756Z,956.32
2024-01-07T02:17:59.767Z,956.35
2024-01-07T02:18:59.798Z,956.35
2024-01-07T02:19:59.744Z,956.33
2024-01-07T02:20:59.682Z,956.38
2024-01-07T02:21:59.753Z,956.34
2024-01-07T02:22:59.701Z,956.34
2024-01-07T02:23:59.646Z,956.38
2024-01-07T02:24:59.830Z,956.38
2024-01-07T02:25:59.631Z,956.34
2024-01-07T02:26:59.618Z,956.30
2024-01-07T02:27:59.676Z,956.37
2024-01-07T02:28:59.637Z,956.38
2024-01-07T02:29:59.616Z,956.31
2024-01-07T02:30:59.630Z,956.36
2024-01-07T02:31:59.586Z,956.29
2024-01-07T02:32:59.642Z,956.29
2024-01-07T02:33:59.696Z,956.30
2024-01-07T02:34:59.566Z,956.32
2024-01-07T02:35:59.515Z,956.34
2024-01-07T02:36:59.544Z,956.32
2024-01-07T02:37:59.530Z,956.31
2024-01-07T02:38:59.522Z,956.32
2024-01-07T02:40:01.555Z,956.32
2024-01-07T02:40:59.632Z,956.33
2024-01-07T02:41:59.470Z,956.33
2024-01-07T02:42:59.510Z,956.33
2024-01-07T02:43:59.428Z,956.30
2024-01-07T02:44:59.457Z,956.28
2024-01-07T02:45:59.505Z,956.24
2024-01-07T02:46:59.464Z,956.28
2024-01-07T02:47:59.489Z,956.25
2024-01-07T02:48:59.441Z,956.26
2024-01-07T02:49:59.400Z,956.24
2024-01-07T02:50:59.358Z,956.30
2024-01-07T02:51:59.377Z,956.24
2024-01-07T02:52:59.385Z,956.30
2024-01-07T02:53:59.328Z,956.28
2024-01-07T02:54:59.336Z,956.30
2024-01-07T02:55:59.327Z,956.31
2024-01-07T02:56:59.325Z,956.28
2024-01-07T02:57:59.292Z,956.30
2024-01-07T02:58:59.277Z,956.29
2024-01-07T02:59:59.282Z,956.27
2024-01-07T03:00:59.352Z,956.28
2024-01-07T03:01:59.254Z,956.27
2024-01-07T03:02:59.268Z,956.28
2024-01-07T03:03:59.262Z,956.33
2024-01-07T03:04:59.250Z,956.34
2024-01-07T03:05:59.250Z,956.33
2024-01-07T03:06:59.252Z,956.30
2024-01-07T03:07:59.176Z,956.30
2024-01-07T03:08:59.184Z,956.33
2024-01-07T03:09:59.184Z,956.39
2024-01-07T03:10:59.161Z,956.34
2024-01-07T03:11:59.124Z,956.30
2024-01-07T03:12:59.215Z,956.25
2024-01-07T03:13:59.110Z,956.33
2024-01-07T03:14:59.116Z,956.31
2024-01-07T03:15:59.118Z,956.30
2024-01-07T03:16:59.074Z,956.31
2024-01-07T03:17:59.116Z,956.29
2024-01-07T03:18:59.112Z,956.35
2024-01-07T03:19:59.051Z,956.34
2024-01-07T03:20:59.022Z,956.29
2024-01-07T03:21:59.064Z,956.32
2024-01-07T03:22:59.011Z,956.33
2024-01-07T03:23:59.020Z,956.31
2024-01-07T03:24:59.018Z,956.37
2024-01-07T03:25:59.007Z,956.31
2024-01-07T03:26:58.961Z,956.34
2024-01-07T03:27:58.958Z,956.27
2024-01-07T03:28:59.010Z,956.28
2024-01-07T03:29:58.923Z,956.33
2024-01-07T03:30:59.017Z,956.27
2024-01-07T03:31:58.899Z,956.35
2024-01-07T03:32:58.967Z,956.36
2024-01-07T03:33:58.988Z,956.30
2024-01-07T03:34:58.932Z,956.30
2024-01-07T03:35:58.861Z,956.30
2024-01-07T03:36:58.898Z,956.31
2024-01-07T03:37:58.832Z,956.29
2024-01-07T03:38:58.823Z,956.33
2024-01-07T03:39:58.864Z,956.39
2024-01-07T03:40:58.849Z,956.37
2024-01-07T03:41:58.805Z,956.37
2024-01-07T03:42:58.838Z,956.35
2024-01-07T03:43:58.782Z,956.38
2024-01-07T03:44:58.779Z,956.39
2024-01-07T03:45:58.785Z,956.42
2024-01-07T03:46:58.776Z,956.43
2024-01-07T03:47:58.803Z,956.43
2024-01-07T03:48:58.912Z,956.46
2024-01-07T03:49:58.703Z,956.42
2024-01-07T03:50:58.694Z,956.42
2024-01-07T03:51:59.054Z,956.42
2024-01-07T03:52:58.676Z,956.43
2024-01-07T03:53:58.679Z,956.46
2024-01-07T03:54:58.725Z,956.43
2024-01-07T03:55:58.638Z,956.46
2024-01-07T03:56:58.624Z,956.45
2024-01-07T03:57:58.655Z,956.46
2024-01-07T03:58:58.638Z,956.48
2024-01-07T03:59:58.601Z,956.51
2024-01-07T04:00:58.645Z,956.50
2024-01-07T04:01:58.654Z,956.52
2024-01-07T04:02:58.605Z,956.56
2024-01-07T04:03:58.668Z,956.52
2024-01-07T04:04:58.547Z,956.55
2024-01-07T04:05:58.627Z,956.52
2024-01-07T04:06:58.583Z,956.61
2024-01-07T04:07:58.520Z,956.60
2024-01-07T04:08:58.490Z,956.55
2024-01-07T04:09:58.547Z,956.56
2024-01-07T04:10:58.479Z,956.58
2024-01-07T04:11:58.482Z,956.56
2024-01-07T04:12:58.480Z,956.58
2024-01-07T04:13:58.452Z,956.57
2024-01-07T04:14:58.435Z,956.60
2024-01-07T04:15:58.501Z,956.58
2024-01-07T04:16:58.434Z,956.57
2024-01-07T04:17:58.505Z,956.58
2024-01-07T04:18:58.442Z,956.60
2024-01-07T04:19:58.452Z,956.64
2024-01-07T04:20:58.363Z,956.64
2024-01-07T04:21:58.472Z,956.62
2024-01-07T04:22:58.348Z,956.62
2024-01-07T04:23:58.354Z,956.64
2024-01-07T04:24:58.361Z,956.63
2024-01-07T04:25:58.303Z,956.68
2024-01-07T04:26:58.321Z,956.64
2024-01-07T04:27:58.345Z,956.62
2024-01-07T04:28:58.280Z,956.68
2024-01-07T04:29:58.291Z,956.68
2024-01-07T04:30:58.325Z,956.70
2024-01-07T04:31:58.264Z,956.66
2024-01-07T04:32:58.322Z,956.67
2024-01-07T04:33:58.332Z,956.70
2024-01-07T04:34:58.311Z,956.73
2024-01-07T04:35:58.226Z,956.69
2024-01-07T04:36:58.229Z,956.71
2024-01-07T04:37:58.172Z,956.81
2024-01-07T04:38:58.161Z,956.72
2024-01-07T04:39:58.162Z,956.77
2024-01-07T04:40:58.138Z,956.78
2024-01-07T04:41:58.123Z,956.78
2024-01-07T04:42:58.160Z,956.80
2024-01-07T04:43:58.119Z,956.83
2024-01-07T04:44:58.094Z,956.87
2024-01-07T04:45:58.133Z,956.88
2024-01-07T04:46:58.100Z,956.83
2024-01-07T04:47:58.126Z,956.85
2024-01-07T04:48:58.172Z,956.82
2024-01-07T04:49:58.146Z,956.88
2024-01-07T04:50:58.029Z,956.87
2024-01-07T04:51:58.064Z,956.87
2024-01-07T04:52:58.040Z,956.90
2024-01-07T04:53:58.021Z,956.93
2024-01-07T04:54:58.180Z,956.87
2024-01-07T04:55:57.985Z,956.88
2024-01-07T04:56:58.004Z,956.88
2024-01-07T04:57:57.993Z,956.94
2024-01-07T04:58:57.943Z,956.90
2024-01-07T04:59:57.922Z,956.94
2024-01-07T05:00:57.993Z,956.98
2024-01-07T05:01:57.969Z,956.94
2024-01-07T05:02:57.982Z,956.93
2024-01-07T05:03:58.017Z,956.98
2024-01-07T05:04:57.899Z,957.03
2024-01-07T05:05:57.886Z,957.05
2024-01-07T05:06:57.865Z,957.00
2024-01-07T05:07:57.868Z,957.02
2024-01-07T05:08:57.849Z,957.06
2024-01-07T05:09:57.885Z,957.06
2024-01-07T05:10:57.822Z,957.08
2024-01-07T05:11:57.804Z,957.04
2024-01-07T05:12:57.879Z,957.18
2024-01-07T05:13:57.780Z,957.15
2024-01-07T05:14:57.782Z,957.20
2024-01-07T05:15:57.775Z,957.22
2024-01-07T05:16:57.742Z,957.19
2024-01-07T05:17:57.783Z,957.22
2024-01-07T05:18:57.821Z,957.18
2024-01-07T05:19:57.801Z,957.24
2024-01-07T05:20:57.720Z,957.19
2024-01-07T05:21:57.807Z,957.18
2024-01-07T05:22:57.678Z,957.27
2024-01-07T05:23:57.673Z,957.24
2024-01-07T05:24:57.728Z,957.22
2024-01-07T05:25:57.667Z,957.26
2024-01-07T05:26:57.660Z,957.28
2024-01-07T05:27:57.689Z,957.27
2024-01-07T05:28:57.611Z,957.29
2024-01-07T05:29:57.612Z,957.29
2024-01-07T05:30:57.651Z,957.25
2024-01-07T05:31:57.668Z,957.28
2024-01-07T05:32:57.603Z,957.25
2024-01-07T05:33:57.676Z,957.25
2024-01-07T05:34:57.597Z,957.23
2024-01-07T05:35:57.545Z,957.24
2024-01-07T05:36:57.750Z,957.25
2024-01-07T05:37:57.565Z,957.27
2024-01-07T05:38:57.510Z,957.31
2024-01-07T05:39:57.524Z,957.28
2024-01-07T05:40:57.481Z,957.30
2024-01-07T05:41:57.484Z,957.29
2024-01-07T05:42:57.500Z,957.30
2024-01-07T05:43:57.489Z,957.29
2024-01-07T05:44:57.435Z,957.30
2024-01-07T05:45:57.450Z,957.27
2024-01-07T05:46:57.413Z,957.38
2024-01-07T05:47:57.431Z,957.35
2024-01-07T05:48:57.571Z,957.38
2024-01-07T05:49:57.481Z,957.36
2024-01-07T05:50:57.384Z,957.40
2024-01-07T05:51:57.410Z,957.39
2024-01-07T05:52:57.416Z,957.41
2024-01-07T05:53:57.336Z,957.36
2024-01-07T05:54:57.384Z,957.38
2024-01-07T05:55:57.310Z,957.45
2024-01-07T05:56:57.298Z,957.42
2024-01-07T05:57:57.316Z,957.40
2024-01-07T05:58:57.308Z,957.46
2024-01-07T05:59:57.270Z,957.42
2024-01-07T06:00:57.286Z,957.44
2024-01-07T06:01:57.275Z,957.44
2024-01-07T06:02:57.242Z,957.49
2024-01-07T06:03:57.399Z,957.46
2024-01-07T06:04:57.287Z,957.49
2024-01-07T06:05:57.265Z,957.47
2024-01-07T06:06:57.386Z,957.46
2024-01-07T06:07:57.245Z,957.44
2024-01-07T06:08:57.219Z,957.46
2024-01-07T06:09:57.214Z,957.50
2024-01-07T06:10:57.156Z,957.46
2024-01-07T06:11:57.149Z,957.50
2024-01-07T06:12:57.210Z,957.51
2024-01-07T06:13:57.118Z,957.53
2024-01-07T06:14:57.100Z,957.53
2024-01-07T06:15:57.136Z,957.53
2024-01-07T06:16:57.079Z,957.54
2024-01-07T06:17:57.125Z,957.55
2024-01-07T06:18:57.257Z,957.58
2024-01-07T06:19:57.093Z,957.52
2024-01-07T06:20:57.045Z,957.55
2024-01-07T06:21:57.073Z,957.57
2024-01-07T06:22:57.015Z,957.55
2024-01-07T06:23:57.031Z,957.54
2024-01-07T06:24:57.042Z,957.55
2024-01-07T06:25:56.996Z,957.61
2024-01-07T06:26:56.967Z,957.58
2024-01-07T06:27:57.018Z,957.59
2024-01-07T06:28:56.958Z,957.61
2024-01-07T06:29:56.968Z,957.59
2024-01-07T06:30:59.987Z,957.56
2024-01-07T06:31:56.936Z,957.59
2024-01-07T06:32:56.993Z,957.63
2024-01-07T06:33:57.183Z,957.62
2024-01-07T06:34:56.890Z,957.68
2024-01-07T06:35:56.898Z,957.59
2024-01-07T06:36:56.990Z,957.62
2024-01-07T06:37:56.845Z,957.67
2024-01-07T06:38:56.873Z,957.63
2024-01-07T06:39:56.858Z,957.64
2024-01-07T06:41:00.062Z,957.71
2024-01-07T06:41:56.801Z,957.62
2024-01-07T06:42:56.863Z,957.70
2024-01-07T06:43:56.777Z,957.68
2024-01-07T06:44:56.794Z,957.73
2024-01-07T06:45:56.774Z,957.74
2024-01-07T06:46:56.755Z,957.74
2024-01-07T06:47:57.560Z,957.72
2024-01-07T06:48:56.826Z,957.74
2024-01-07T06:49:56.848Z,957.72
2024-01-07T06:50:56.749Z,957.75
2024-01-07T06:51:56.897Z,957.76
2024-01-07T06:52:56.705Z,957.75
2024-01-07T06:53:56.707Z,957.79
2024-01-07T06:54:56.773Z,957.83
2024-01-07T06:55:56.690Z,957.74
2024-01-07T06:56:56.668Z,957.78
2024-01-07T06:57:56.735Z,957.83
2024-01-07T06:58:56.630Z,957.82
2024-01-07T06:59:56.604Z,957.85
2024-01-07T07:00:56.743Z,957.85
2024-01-07T07:01:56.699Z,957.88
2024-01-07T07:02:56.573Z,957.91
2024-01-07T07:03:56.692Z,957.92
2024-01-07T07:04:56.732Z,957.88
2024-01-07T07:05:56.595Z,957.89
2024-01-07T07:06:56.591Z,957.95
2024-01-07T07:07:56.530Z,957.85
2024-01-07T07:08:56.507Z,957.94
2024-01-07T07:09:56.591Z,957.96
2024-01-07T07:10:56.491Z,957.95
2024-01-07T07:11:56.505Z,957.94
2024-01-07T07:12:56.588Z,958.00
2024-01-07T07:13:56.499Z,957.98
2024-01-07T07:14:56.451Z,957.99
2024-01-07T07:15:56.478Z,957.96
2024-01-07T07:16:56.421Z,958.00
2024-01-07T07:17:56.524Z,958.01
2024-01-07T07:18:56.453Z,958.00
2024-01-07T07:19:56.710Z,958.06
2024-01-07T07:20:56.386Z,958.05
2024-01-07T07:21:56.435Z,958.09
2024-01-07T07:22:56.398Z,958.09
2024-01-07T07:23:56.342Z,958.07
2024-01-07T07:24:59.711Z,958.16
2024-01-07T07:25:56.326Z,958.15
2024-01-07T07:26:56.333Z,958.19
2024-01-07T07:27:56.324Z,958.17
2024-01-07T07:28:56.325Z,958.17
2024-01-07T07:29:56.277Z,958.21
2024-01-07T07:30:56.545Z,958.22
2024-01-07T07:31:56.364Z,958.26
2024-01-07T07:32:56.289Z,958.25
2024-01-07T07:33:56.347Z,958.29
2024-01-07T07:34:56.443Z,958.32
2024-01-07T07:35:56.225Z,958.26
2024-01-07T07:36:56.265Z,958.26
2024-01-07T07:37:56.239Z,958.37
2024-01-07T07:38:56.188Z,958.27
2024-01-07T07:39:56.205Z,958.34
2024-01-07T07:40:56.163Z,958.32
2024-01-07T07:41:56.148Z,958.30
2024-01-07T07:42:56.218Z,958.32
2024-01-07T07:43:56.135Z,958.31
2024-01-07T07:44:56.157Z,958.33
2024-01-07T07:45:56.161Z,958.42
2024-01-07T07:46:56.092Z,958.31
2024-01-07T07:47:56.137Z,958.31
2024-01-07T07:48:56.143Z,958.39
2024-01-07T07:49:56.211Z,958.42
2024-01-07T07:50:56.056Z,958.45
2024-01-07T07:51:56.041Z,958.44
2024-01-07T07:52:56.050Z,958.46
2024-01-07T07:53:56.044Z,958.50
2024-01-07T07:54:56.091Z,958.47
2024-01-07T07:55:56.001Z,958.51
2024-01-07T07:56:56.007Z,958.51
2024-01-07T07:57:55.992Z,958.57
2024-01-07T07:58:55.978Z,958.52
2024-01-07T07:59:55.962Z,958.55
2024-01-07T08:00:56.049Z,958.55
2024-01-07T08:01:56.074Z,958.57
2024-01-07T08:02:55.972Z,958.56
2024-01-07T08:03:55.984Z,958.58
2024-01-07T08:04:55.913Z,958.62
2024-01-07T08:05:55.882Z,958.61
2024-01-07T08:06:55.948Z,958.62
2024-01-07T08:07:55.889Z,958.55
2024-01-07T08:08:55.886Z,958.63
2024-01-07T08:09:55.863Z,958.62
2024-01-07T08:10:55.839Z,958.70
2024-01-07T08:11:55.821Z,958.60
2024-01-07T08:12:55.958Z,958.62
2024-01-07T08:13:55.829Z,958.66
2024-01-07T08:14:55.776Z,958.72
2024-01-07T08:15:55.831Z,958.72
2024-01-07T08:16:55.791Z,958.69
2024-01-07T08:17:55.843Z,958.71
2024-01-07T08:18:55.837Z,958.72
2024-01-07T08:19:55.916Z,958.72
2024-01-07T08:20:55.715Z,958.79
2024-01-07T08:21:55.825Z,958.74
2024-01-07T08:22:55.750Z,958.72
2024-01-07T08:23:55.712Z,958.78
2024-01-07T08:24:55.734Z,958.77
2024-01-07T08:25:55.700Z,958.73
2024-01-07T08:26:55.649Z,958.80
2024-01-07T08:27:55.695Z,958.82
2024-01-07T08:28:55.626Z,958.84
2024-01-07T08:29:55.631Z,958.78
2024-01-07T08:30:55.733Z,958.84
2024-01-07T08:31:55.754Z,958.86
2024-01-07T08:32:55.682Z,958.82
2024-01-07T08:33:55.744Z,958.81
2024-01-07T08:34:55.638Z,958.83
2024-01-07T08:35:55.564Z,958.80
2024-01-07T08:36:55.554Z,958.83
2024-01-07T08:37:55.548Z,958.90
2024-01-07T08:38:55.528Z,958.84
2024-01-07T08:39:55.551Z,958.82
2024-01-07T08:40:55.492Z,958.91
2024-01-07T08:41:55.526Z,958.91
2024-01-07T08:42:55.485Z,958.89
2024-01-07T08:43:55.460Z,958.88
2024-01-07T08:44:55.454Z,958.92
2024-01-07T08:45:55.518Z,958.96
2024-01-07T08:46:55.430Z,958.90
2024-01-07T08:47:55.486Z,958.88
2024-01-07T08:48:55.677Z,958.98
2024-01-07T08:49:55.446Z,958.95
2024-01-07T08:50:55.388Z,958.91
2024-01-07T08:51:55.434Z,958.96
2024-01-07T08:52:55.377Z,958.96
2024-01-07T08:53:55.365Z,958.94
2024-01-07T08:54:55.362Z,958.99
2024-01-07T08:55:55.328Z,958.96
2024-01-07T08:56:55.339Z,959.01
2024-01-07T08:57:55.400Z,959.05
2024-01-07T08:58:55.311Z,959.02
2024-01-07T08:59:55.305Z,959.10
2024-01-07T09:00:55.308Z,959.07
2024-01-07T09:01:55.458Z,959.03
2024-01-07T09:02:56.041Z,959.09
2024-01-07T09:03:55.425Z,959.11
2024-01-07T09:04:55.261Z,959.07
2024-01-07T09:05:55.264Z,959.09
2024-01-07T09:06:55.253Z,959.10
2024-01-07T09:07:55.196Z,959.11
2024-01-07T09:08:55.202Z,959.16
2024-01-07T09:09:55.271Z,959.18
2024-01-07T09:10:55.197Z,959.16
2024-01-07T09:11:55.158Z,959.22
2024-01-07T09:12:55.167Z,959.20
2024-01-07T09:13:55.130Z,959.17
2024-01-07T09:14:55.144Z,959.23
2024-01-07T09:15:55.165Z,959.15
2024-01-07T09:16:55.130Z,959.20
2024-01-07T09:17:55.177Z,959.25
2024-01-07T09:18:55.162Z,959.18
2024-01-07T09:19:55.139Z,959.17
2024-01-07T09:20:55.077Z,959.23
2024-01-07T09:21:55.079Z,959.26
2024-01-07T09:22:55.071Z,959.28
2024-01-07T09:23:55.030Z,959.33
2024-01-07T09:24:55.062Z,959.33
2024-01-07T09:25:55.014Z,959.29
2024-01-07T09:26:55.022Z,959.37
2024-01-07T09:27:55.036Z,959.30
2024-01-07T09:28:54.973Z,959.33
2024-01-07T09:29:54.975Z,959.36
2024-01-07T09:30:55.088Z,959.37
2024-01-07T09:31:55.139Z,959.39
2024-01-07T09:32:54.983Z,959.36
2024-01-07T09:33:54.969Z,959.35
2024-01-07T09:34:55.254Z,959.40
2024-01-07T09:35:57.912Z,959.33
2024-01-07T09:36:55.973Z,959.36
2024-01-07T09:37:54.971Z,959.32
2024-01-07T09:38:55.084Z,959.37
2024-01-07T09:39:54.881Z,959.36
2024-01-07T09:40:54.836Z,959.33
2024-01-07T09:41:54.824Z,959.33
2024-01-07T09:42:54.838Z,959.39
2024-01-07T09:43:54.846Z,959.35
2024-01-07T09:44:54.802Z,959.40
2024-01-07T09:45:54.841Z,959.29
2024-01-07T09:46:54.768Z,959.33
2024-01-07T09:47:54.898Z,959.38
2024-01-07T09:48:54.909Z,959.33
2024-01-07T09:49:54.873Z,959.32
2024-01-07T09:50:54.745Z,959.34
2024-01-07T09:51:54.809Z,959.37
2024-01-07T09:53:05.163Z,959.35
2024-01-07T09:53:54.704Z,959.34
2024-01-07T09:54:54.766Z,959.34
2024-01-07T09:55:54.678Z,959.39
2024-01-07T09:56:54.668Z,959.34
2024-01-07T09:57:54.697Z,959.35
2024-01-07T09:58:54.631Z,959.30
2024-01-07T09:59:54.622Z,959.36
2024-01-07T10:00:54.668Z,959.34
2024-01-07T10:01:56.664Z,959.40
2024-01-07T10:02:54.616Z,959.42
2024-01-07T10:03:54.687Z,959.43
2024-01-07T10:04:54.625Z,959.38
2024-01-07T10:05:54.598Z,959.35
2024-01-07T10:06:54.624Z,959.44
2024-01-07T10:07:54.576Z,959.38
2024-01-07T10:08:54.561Z,959.39
2024-01-07T10:09:54.545Z,959.40
2024-01-07T10:10:54.513Z,959.41
2024-01-07T10:11:54.494Z,959.35
2024-01-07T10:12:54.673Z,959.36
2024-01-07T10:13:54.497Z,959.37
2024-01-07T10:14:54.457Z,959.32
2024-01-07T10:15:54.462Z,959.40
2024-01-07T10:16:54.438Z,959.42
2024-01-07T10:17:54.538Z,959.40
2024-01-07T10:18:54.614Z,959.40
2024-01-07T10:19:54.557Z,959.39
2024-01-07T10:20:54.392Z,959.38
2024-01-07T10:21:54.422Z,959.38
2024-01-07T10:22:54.369Z,959.39
2024-01-07T10:23:54.418Z,959.38
2024-01-07T10:24:54.506Z,959.34
2024-01-07T10:25:54.393Z,959.38
2024-01-07T10:26:54.324Z,959.40
2024-01-07T10:27:54.376Z,959.44
2024-01-07T10:28:54.306Z,959.43
2024-01-07T10:29:54.301Z,959.45
2024-01-07T10:30:54.415Z,959.41
2024-01-07T10:31:54.351Z,959.40
2024-01-07T10:32:54.276Z,959.44
2024-01-07T10:33:54.352Z,959.45
2024-01-07T10:34:54.397Z,959.46
2024-01-07T10:35:54.222Z,959.44
2024-01-07T10:36:54.287Z,959.47
2024-01-07T10:37:54.229Z,959.45
2024-01-07T10:38:54.197Z,959.44
2024-01-07T10:39:54.239Z,959.43
2024-01-07T10:40:54.199Z,959.43
2024-01-07T10:41:54.194Z,959.49
2024-01-07T10:42:54.197Z,959.41
2024-01-07T10:43:54.147Z,959.49
2024-01-07T10:44:54.146Z,959.52
2024-01-07T10:45:54.207Z,959.50
2024-01-07T10:46:54.127Z,959.46
2024-01-07T10:47:54.168Z,959.53
2024-01-07T10:48:54.165Z,959.52
2024-01-07T10:49:55.602Z,959.55
2024-01-07T10:50:54.155Z,959.53
2024-01-07T10:51:54.073Z,959.49
2024-01-07T10:52:54.068Z,959.57
2024-01-07T10:53:54.036Z,959.55
2024-01-07T10:54:54.050Z,959.63
2024-01-07T10:55:56.113Z,959.53
2024-01-07T10:56:54.015Z,959.56
2024-01-07T10:57:54.024Z,959.59
2024-01-07T10:58:54.002Z,959.56
2024-01-07T10:59:53.973Z,959.56
2024-01-07T11:00:54.080Z,959.50
2024-01-07T11:01:55.356Z,959.52
2024-01-07T11:02:53.943Z,959.52
2024-01-07T11:03:53.994Z,959.61
2024-01-07T11:04:53.950Z,959.57
2024-01-07T11:05:54.077Z,959.57
2024-01-07T11:06:53.970Z,959.56
2024-01-07T11:07:53.873Z,959.56
2024-01-07T11:08:53.864Z,959.52
2024-01-07T11:09:53.912Z,959.49
2024-01-07T11:10:54.058Z,959.58
2024-01-07T11:11:53.856Z,959.62
2024-01-07T11:12:53.836Z,959.54
2024-01-07T11:13:54.893Z,959.55
2024-01-07T11:14:53.829Z,959.55
2024-01-07T11:15:53.898Z,959.59
2024-01-07T11:16:53.784Z,959.53
2024-01-07T11:17:53.940Z,959.62
2024-01-07T11:18:53.982Z,959.55
2024-01-07T11:19:55.242Z,959.55
2024-01-07T11:20:53.735Z,959.60
2024-01-07T11:21:53.776Z,959.55
2024-01-07T11:22:53.737Z,959.53
2024-01-07T11:23:53.757Z,959.54
2024-01-07T11:24:53.738Z,959.60
2024-01-07T11:25:53.672Z,959.62
2024-01-07T11:26:53.678Z,959.60
2024-01-07T11:27:53.717Z,959.56
2024-01-07T11:28:53.678Z,959.52
2024-01-07T11:29:53.676Z,959.59
2024-01-07T11:30:53.715Z,959.56
2024-01-07T11:31:53.737Z,959.61
2024-01-07T11:32:53.662Z,959.63
2024-01-07T11:33:53.809Z,959.61
2024-01-07T11:34:53.824Z,959.61
2024-01-07T11:35:53.579Z,959.59
2024-01-07T11:36:53.673Z,959.66
2024-01-07T11:37:53.539Z,959.66
2024-01-07T11:38:54.990Z,959.67
2024-01-07T11:39:53.578Z,959.66
2024-01-07T11:40:53.531Z,959.65
2024-01-07T11:41:53.555Z,959.68
2024-01-07T11:42:53.497Z,959.69
2024-01-07T11:43:53.481Z,959.66
2024-01-07T11:44:53.524Z,959.75
2024-01-07T11:45:53.579Z,959.71
2024-01-07T11:46:53.466Z,959.68
2024-01-07T11:47:53.590Z,959.68
2024-01-07T11:48:53.485Z,959.73
2024-01-07T11:49:53.552Z,959.75
2024-01-07T11:50:55.344Z,959.77
2024-01-07T11:51:53.440Z,959.77
2024-01-07T11:52:53.407Z,959.75
2024-01-07T11:53:53.385Z,959.80
2024-01-07T11:54:53.375Z,959.81
2024-01-07T11:55:53.369Z,959.78
2024-01-07T11:56:53.343Z,959.68
2024-01-07T11:57:53.363Z,959.73
2024-01-07T11:58:53.318Z,959.75
2024-01-07T11:59:53.356Z,959.73
2024-01-07T12:00:53.401Z,959.72
2024-01-07T12:01:53.438Z,959.89
2024-01-07T12:02:53.283Z,959.77
2024-01-07T12:03:53.426Z,959.85
2024-01-07T12:04:53.374Z,959.82
2024-01-07T12:05:53.289Z,959.86
2024-01-07T12:06:53.301Z,959.85
2024-01-07T12:07:53.251Z,959.88
2024-01-07T12:08:53.222Z,959.88
2024-01-07T12:09:53.255Z,959.90
2024-01-07T12:10:53.219Z,959.83
2024-01-07T12:11:53.196Z,959.90
2024-01-07T12:12:53.243Z,959.85
2024-01-07T12:13:53.181Z,959.90
2024-01-07T12:14:53.181Z,959.93
2024-01-07T12:15:53.190Z,959.94
2024-01-07T12:16:53.153Z,960.00
2024-01-07T12:17:53.175Z,959.94
2024-01-07T12:18:53.234Z,960.00
2024-01-07T12:19:53.161Z,959.99
2024-01-07T12:20:53.083Z,960.00
2024-01-07T12:21:53.085Z,959.96
2024-01-07T12:22:53.055Z,959.99
2024-01-07T12:23:53.062Z,959.98
2024-01-07T12:24:53.104Z,959.99
2024-01-07T12:25:53.053Z,960.01
2024-01-07T12:26:53.034Z,960.04
2024-01-07T12:27:53.066Z,960.04